Mercur 201 — YP2350 — position and weather

sailwx.info

Track history (hours):
 
Tides and Currents Weather Stations Pressure Air Temp Water Temp Dewpoint Dewpoint Depression Visibility Wind Speed Wind Dir Waves Ship Positions

Mercur 201

Last reported at 2018-Feb-22 19:35 UTC. Time now 2018-Feb-22 22:47 UTC.
Position N 47°52' E 017°34'.

Length 35 m; draft 1.9 m.

Type: Ship. MMSI: 264162350.

Date/timePositionNaut miles runAvg speedWind from/ knotsBaromVisibWave heightAir tempDewpointWater temp
2018-Feb-22 19:35N 47°52' E 017°34'0 1.4
2018-Feb-22 19:30N 47°52' E 017°34'2 2.4
2018-Feb-22 18:51N 47°53' E 017°32'0 1.2
2018-Feb-22 18:30N 47°53' E 017°32'3 5.4
2018-Feb-22 18:00N 47°55' E 017°29'3 5.3
2018-Feb-22 17:30N 47°57' E 017°26'3 6.3
2018-Feb-22 17:00N 47°59' E 017°23'3 6.3
2018-Feb-22 16:30N 48°00' E 017°18'3 6.5
2018-Feb-22 16:00N 48°02' E 017°14'4 7.3
2018-Feb-22 15:30N 48°04' E 017°10'1 2.2
2018-Feb-22 15:00N 48°05' E 017°09'0 0.2
2018-Feb-22 14:30N 48°05' E 017°09'3 6.1
2018-Feb-22 14:00N 48°08' E 017°08'5 9.3
2018-Feb-22 13:30N 48°09' E 017°01'4 7.2
2018-Feb-22 13:00N 48°09' E 016°56'10 9.7
2018-Feb-22 11:58N 48°07' E 016°41'5 9.9
2018-Feb-22 11:30N 48°08' E 016°34'4 8.8
2018-Feb-22 11:00N 48°10' E 016°29'0 0.3
2018-Feb-22 10:28N 48°11' E 016°29'2 4.9
2018-Feb-22 09:58N 48°12' E 016°26'0 0.1
2018-Feb-22 09:26N 48°12' E 016°26'3 5.9
2018-Feb-22 09:00N 48°14' E 016°24'4 7.6
2018-Feb-22 08:29N 48°18' E 016°21'4 0.1
2018-Feb-20 21:48N 48°21' E 016°17'1 4.4
2018-Feb-20 21:30N 48°20' E 016°19'2 3.6
2018-Feb-20 21:00N 48°19' E 016°20'2 3.9
2018-Feb-20 20:30N 48°17' E 016°21'2 4.6
2018-Feb-20 19:59N 48°15' E 016°23'3 5.3
2018-Feb-20 19:28N 48°13' E 016°25'3 5.8
2018-Feb-20 19:00N 48°11' E 016°28'1 1.1
2018-Feb-20 18:28N 48°11' E 016°29'1 2.7
2018-Feb-20 18:00N 48°10' E 016°30'1 2.1
2018-Feb-20 17:29N 48°09' E 016°32'0 0.1
2018-Feb-20 17:00N 48°09' E 016°32'0 0.5
2018-Feb-20 16:30N 48°10' E 016°32'0 0.1
2018-Feb-20 15:50N 48°10' E 016°32'0 0.0
2018-Feb-20 14:39N 48°10' E 016°32'0 0.1
2018-Feb-20 14:30N 48°10' E 016°32'0 0.0
2018-Feb-20 13:59N 48°10' E 016°32'0 0.0
2018-Feb-20 13:27N 48°10' E 016°32'0 0.0
2018-Feb-20 13:00N 48°10' E 016°32'0 0.0
2018-Feb-20 12:30N 48°10' E 016°32'0 0.0
2018-Feb-20 11:58N 48°10' E 016°32'0 0.7
2018-Feb-20 11:27N 48°09' E 016°32'1 1.4
2018-Feb-20 11:00N 48°09' E 016°32'2 3.3
2018-Feb-20 10:30N 48°08' E 016°35'2 3.1
2018-Feb-20 10:00N 48°08' E 016°37'2 3.1
2018-Feb-20 09:16N 48°07' E 016°40'6 2.7
2018-Feb-20 07:05N 48°07' E 016°49'1 2.6
2018-Feb-20 06:43N 48°07' E 016°50'2 2.6
2018-Feb-20 06:03N 48°08' E 016°53'0 2.7
2018-Feb-20 06:00N 48°08' E 016°53'1 2.7
2018-Feb-20 05:30N 48°09' E 016°55'1 2.6
2018-Feb-20 05:00N 48°09' E 016°57'1 2.8
2018-Feb-20 04:30N 48°10' E 016°58'1 2.2
2018-Feb-20 04:00N 48°10' E 016°59'1 2.8
2018-Feb-20 03:30N 48°09' E 017°01'1 2.6
2018-Feb-20 03:00N 48°08' E 017°02'1 2.9
2018-Feb-20 02:30N 48°09' E 017°05'2 3.5
2018-Feb-20 02:00N 48°08' E 017°07'2 3.2
2018-Feb-20 01:30N 48°07' E 017°09'2 4.7
2018-Feb-20 01:00N 48°05' E 017°09'0 0.2
2018-Feb-20 00:30N 48°05' E 017°09'1 2.9
2018-Feb-20 00:00N 48°04' E 017°10'2 4.8
2018-Feb-19 23:30N 48°02' E 017°14'3 5.0
2018-Feb-19 23:00N 48°01' E 017°16'3 5.3
2018-Feb-19 22:30N 48°00' E 017°20'3 5.5
2018-Feb-19 22:00N 47°59' E 017°24'3 5.5
2018-Feb-19 21:30N 47°57' E 017°27'3 5.6
2018-Feb-19 21:00N 47°55' E 017°30'3 4.2
2018-Feb-19 20:23N 47°53' E 017°32'0 0.0
2018-Feb-19 20:00N 47°53' E 017°32'65 2.2
2018-Feb-18 14:00N 47°37' E 019°06'2 3.5
2018-Feb-18 13:29N 47°35' E 019°04'1 1.0
2018-Feb-18 12:57N 47°35' E 019°04'0 0.0
2018-Feb-18 12:27N 47°35' E 019°04'0 0.0
2018-Feb-18 12:00N 47°35' E 019°04'2 3.4
2018-Feb-18 11:30N 47°33' E 019°04'2 4.9
2018-Feb-18 11:00N 47°31' E 019°03'2 4.8
2018-Feb-18 10:30N 47°29' E 019°04'2 4.4
2018-Feb-18 10:00N 47°26' E 019°03'2 4.3
2018-Feb-18 09:29N 47°24' E 019°02'2 4.9
2018-Feb-18 09:00N 47°23' E 018°59'3 3.7
2018-Feb-18 08:18N 47°25' E 019°03'310.0
2018-Feb-18 08:00N 47°28' E 019°04'4 8.5
2018-Feb-18 07:30N 47°32' E 019°03'2 2.6
2018-Feb-18 06:38N 47°34' E 019°04'1 5.3
2018-Feb-18 06:29N 47°33' E 019°04'2 4.8
2018-Feb-18 05:59N 47°31' E 019°03'2 4.7
2018-Feb-18 05:30N 47°29' E 019°04'2 4.1
2018-Feb-18 05:00N 47°27' E 019°03'3 4.0
2018-Feb-18 04:16N 47°24' E 019°02'0 0.1
2018-Feb-18 02:53N 47°24' E 019°02'3 8.4
2018-Feb-18 02:30N 47°27' E 019°03'4 7.4
2018-Feb-18 02:00N 47°30' E 019°03'4 7.7
2018-Feb-18 01:30N 47°34' E 019°04'0 0.6
2018-Feb-18 00:51N 47°34' E 019°04'2 4.7
2018-Feb-18 00:31N 47°32' E 019°03'2 4.6
2018-Feb-18 00:00N 47°30' E 019°03'2 4.4
2018-Feb-17 23:30N 47°28' E 019°04'2 4.1
2018-Feb-17 23:00N 47°26' E 019°03'2 3.6
2018-Feb-17 22:29N 47°24' E 019°02'8 0.4
2018-Feb-17 03:57N 47°18' E 018°55'3 6.6
2018-Feb-17 03:29N 47°20' E 018°57'3 3.4
2018-Feb-17 02:38N 47°23' E 018°59'0 0.0
2018-Feb-17 02:30N 47°23' E 018°59'1 1.5
2018-Feb-17 01:58N 47°23' E 018°60'4 7.6
2018-Feb-17 01:30N 47°26' E 019°03'4 7.8
2018-Feb-17 01:00N 47°30' E 019°03'4 8.2
2018-Feb-17 00:28N 47°34' E 019°04'1 1.0
2018-Feb-16 23:58N 47°35' E 019°04'2 5.1
2018-Feb-16 23:30N 47°32' E 019°03'2 5.1
2018-Feb-16 23:00N 47°30' E 019°03'2 4.5
2018-Feb-16 22:30N 47°28' E 019°04'2 4.8
2018-Feb-16 22:00N 47°26' E 019°03'2 4.7
2018-Feb-16 21:30N 47°23' E 019°01'1 2.3
2018-Feb-16 20:54N 47°23' E 018°59'3 7.4
2018-Feb-16 20:31N 47°25' E 019°03'4 8.1
2018-Feb-16 20:00N 47°29' E 019°04'4 7.6
2018-Feb-16 19:30N 47°33' E 019°03'56 4.3
2018-Feb-16 06:39N 47°45' E 017°43'2 9.2
2018-Feb-16 06:23N 47°47' E 017°40'3 9.0
2018-Feb-16 06:00N 47°49' E 017°36'3 5.3
2018-Feb-16 05:30N 47°51' E 017°34'0 0.0
2018-Feb-15 16:29N 47°51' E 017°34'2 2.9
2018-Feb-15 15:51N 47°53' E 017°32'0 0.1
2018-Feb-15 15:30N 47°53' E 017°32'1 2.2
2018-Feb-15 15:00N 47°54' E 017°31'2 4.9
2018-Feb-15 14:30N 47°55' E 017°29'3 6.7
2018-Feb-15 14:00N 47°58' E 017°25'3 6.4
2018-Feb-15 13:30N 47°60' E 017°21'3 5.9
2018-Feb-15 13:00N 48°00' E 017°17'3 6.5
2018-Feb-15 12:30N 48°03' E 017°13'3 6.9
2018-Feb-15 12:00N 48°05' E 017°09'3 6.9
2018-Feb-15 11:31N 48°08' E 017°08'4 8.8
2018-Feb-15 11:00N 48°09' E 017°01'4 6.9
2018-Feb-15 10:29N 48°09' E 016°56'6 9.5
2018-Feb-15 09:50N 48°07' E 016°47'4 9.0
2018-Feb-15 09:25N 48°07' E 016°41'410.0
2018-Feb-15 08:59N 48°08' E 016°35'5 9.5
2018-Feb-15 08:30N 48°10' E 016°29'0 0.6
2018-Feb-15 07:59N 48°11' E 016°29'2 4.9
2018-Feb-15 07:30N 48°12' E 016°26'16 0.3
2018-Feb-13 05:10N 48°07' E 016°48'0 2.6
2018-Feb-13 05:00N 48°07' E 016°49'1 2.6
2018-Feb-13 04:29N 48°07' E 016°51'1 3.0
2018-Feb-13 04:00N 48°08' E 016°53'1 2.8
2018-Feb-13 03:30N 48°09' E 016°54'1 2.6
2018-Feb-13 03:00N 48°09' E 016°56'1 3.0
2018-Feb-13 02:30N 48°10' E 016°58'1 2.5
2018-Feb-13 02:00N 48°10' E 016°59'1 2.9
2018-Feb-13 01:30N 48°09' E 017°01'1 2.7
2018-Feb-13 01:00N 48°09' E 017°03'2 3.2
2018-Feb-13 00:30N 48°08' E 017°05'2 3.6
2018-Feb-13 00:00N 48°08' E 017°08'2 3.7
2018-Feb-12 23:30N 48°06' E 017°08'2 3.2
2018-Feb-12 23:00N 48°05' E 017°09'0 0.1
2018-Feb-12 22:30N 48°05' E 017°09'2 3.8
2018-Feb-12 22:00N 48°03' E 017°11'2 4.3
2018-Feb-12 21:30N 48°02' E 017°14'2 4.5
2018-Feb-12 21:00N 48°01' E 017°16'2 4.7
2018-Feb-12 20:30N 48°00' E 017°20'2 4.8
2018-Feb-12 20:00N 47°59' E 017°23'  
Track history (hours):
 
Tides and Currents Weather Stations Pressure Air Temp Water Temp Dewpoint Dewpoint Depression Visibility Wind Speed Wind Dir Waves Ship Positions

Mercur 201

Last reported at 2018-Feb-22 19:35 UTC. Time now 2018-Feb-22 22:47 UTC.
Position N 47°52' E 017°34'.

Length 35 m; draft 1.9 m.

Type: Ship. MMSI: 264162350.

Date/timePositionNaut miles runAvg speedWind from/ knotsBaromVisibWave heightAir tempDewpointWater temp
2018-Feb-22 19:35N 47°52' E 017°34'0 1.4
2018-Feb-22 19:30N 47°52' E 017°34'2 2.4
2018-Feb-22 18:51N 47°53' E 017°32'0 1.2
2018-Feb-22 18:30N 47°53' E 017°32'3 5.4
2018-Feb-22 18:00N 47°55' E 017°29'3 5.3
2018-Feb-22 17:30N 47°57' E 017°26'3 6.3
2018-Feb-22 17:00N 47°59' E 017°23'3 6.3
2018-Feb-22 16:30N 48°00' E 017°18'3 6.5
2018-Feb-22 16:00N 48°02' E 017°14'4 7.3
2018-Feb-22 15:30N 48°04' E 017°10'1 2.2
2018-Feb-22 15:00N 48°05' E 017°09'0 0.2
2018-Feb-22 14:30N 48°05' E 017°09'3 6.1
2018-Feb-22 14:00N 48°08' E 017°08'5 9.3
2018-Feb-22 13:30N 48°09' E 017°01'4 7.2
2018-Feb-22 13:00N 48°09' E 016°56'10 9.7
2018-Feb-22 11:58N 48°07' E 016°41'5 9.9
2018-Feb-22 11:30N 48°08' E 016°34'4 8.8
2018-Feb-22 11:00N 48°10' E 016°29'0 0.3
2018-Feb-22 10:28N 48°11' E 016°29'2 4.9
2018-Feb-22 09:58N 48°12' E 016°26'0 0.1
2018-Feb-22 09:26N 48°12' E 016°26'3 5.9
2018-Feb-22 09:00N 48°14' E 016°24'4 7.6
2018-Feb-22 08:29N 48°18' E 016°21'4 0.1
2018-Feb-20 21:48N 48°21' E 016°17'1 4.4
2018-Feb-20 21:30N 48°20' E 016°19'2 3.6
2018-Feb-20 21:00N 48°19' E 016°20'2 3.9
2018-Feb-20 20:30N 48°17' E 016°21'2 4.6
2018-Feb-20 19:59N 48°15' E 016°23'3 5.3
2018-Feb-20 19:28N 48°13' E 016°25'3 5.8
2018-Feb-20 19:00N 48°11' E 016°28'1 1.1
2018-Feb-20 18:28N 48°11' E 016°29'1 2.7
2018-Feb-20 18:00N 48°10' E 016°30'1 2.1
2018-Feb-20 17:29N 48°09' E 016°32'0 0.1
2018-Feb-20 17:00N 48°09' E 016°32'0 0.5
2018-Feb-20 16:30N 48°10' E 016°32'0 0.1
2018-Feb-20 15:50N 48°10' E 016°32'0 0.0
2018-Feb-20 14:39N 48°10' E 016°32'0 0.1
2018-Feb-20 14:30N 48°10' E 016°32'0 0.0
2018-Feb-20 13:59N 48°10' E 016°32'0 0.0
2018-Feb-20 13:27N 48°10' E 016°32'0 0.0
2018-Feb-20 13:00N 48°10' E 016°32'0 0.0
2018-Feb-20 12:30N 48°10' E 016°32'0 0.0
2018-Feb-20 11:58N 48°10' E 016°32'0 0.7
2018-Feb-20 11:27N 48°09' E 016°32'1 1.4
2018-Feb-20 11:00N 48°09' E 016°32'2 3.3
2018-Feb-20 10:30N 48°08' E 016°35'2 3.1
2018-Feb-20 10:00N 48°08' E 016°37'2 3.1
2018-Feb-20 09:16N 48°07' E 016°40'6 2.7
2018-Feb-20 07:05N 48°07' E 016°49'1 2.6
2018-Feb-20 06:43N 48°07' E 016°50'2 2.6
2018-Feb-20 06:03N 48°08' E 016°53'0 2.7
2018-Feb-20 06:00N 48°08' E 016°53'1 2.7
2018-Feb-20 05:30N 48°09' E 016°55'1 2.6
2018-Feb-20 05:00N 48°09' E 016°57'1 2.8
2018-Feb-20 04:30N 48°10' E 016°58'1 2.2
2018-Feb-20 04:00N 48°10' E 016°59'1 2.8
2018-Feb-20 03:30N 48°09' E 017°01'1 2.6
2018-Feb-20 03:00N 48°08' E 017°02'1 2.9
2018-Feb-20 02:30N 48°09' E 017°05'2 3.5
2018-Feb-20 02:00N 48°08' E 017°07'2 3.2
2018-Feb-20 01:30N 48°07' E 017°09'2 4.7
2018-Feb-20 01:00N 48°05' E 017°09'0 0.2
2018-Feb-20 00:30N 48°05' E 017°09'1 2.9
2018-Feb-20 00:00N 48°04' E 017°10'2 4.8
2018-Feb-19 23:30N 48°02' E 017°14'3 5.0
2018-Feb-19 23:00N 48°01' E 017°16'3 5.3
2018-Feb-19 22:30N 48°00' E 017°20'3 5.5
2018-Feb-19 22:00N 47°59' E 017°24'3 5.5
2018-Feb-19 21:30N 47°57' E 017°27'3 5.6
2018-Feb-19 21:00N 47°55' E 017°30'3 4.2
2018-Feb-19 20:23N 47°53' E 017°32'0 0.0
2018-Feb-19 20:00N 47°53' E 017°32'65 2.2
2018-Feb-18 14:00N 47°37' E 019°06'2 3.5
2018-Feb-18 13:29N 47°35' E 019°04'1 1.0
2018-Feb-18 12:57N 47°35' E 019°04'0 0.0
2018-Feb-18 12:27N 47°35' E 019°04'0 0.0
2018-Feb-18 12:00N 47°35' E 019°04'2 3.4
2018-Feb-18 11:30N 47°33' E 019°04'2 4.9
2018-Feb-18 11:00N 47°31' E 019°03'2 4.8
2018-Feb-18 10:30N 47°29' E 019°04'2 4.4
2018-Feb-18 10:00N 47°26' E 019°03'2 4.3
2018-Feb-18 09:29N 47°24' E 019°02'2 4.9
2018-Feb-18 09:00N 47°23' E 018°59'3 3.7
2018-Feb-18 08:18N 47°25' E 019°03'310.0
2018-Feb-18 08:00N 47°28' E 019°04'4 8.5
2018-Feb-18 07:30N 47°32' E 019°03'2 2.6
2018-Feb-18 06:38N 47°34' E 019°04'1 5.3
2018-Feb-18 06:29N 47°33' E 019°04'2 4.8
2018-Feb-18 05:59N 47°31' E 019°03'2 4.7
2018-Feb-18 05:30N 47°29' E 019°04'2 4.1
2018-Feb-18 05:00N 47°27' E 019°03'3 4.0
2018-Feb-18 04:16N 47°24' E 019°02'0 0.1
2018-Feb-18 02:53N 47°24' E 019°02'3 8.4
2018-Feb-18 02:30N 47°27' E 019°03'4 7.4
2018-Feb-18 02:00N 47°30' E 019°03'4 7.7
2018-Feb-18 01:30N 47°34' E 019°04'0 0.6
2018-Feb-18 00:51N 47°34' E 019°04'2 4.7
2018-Feb-18 00:31N 47°32' E 019°03'2 4.6
2018-Feb-18 00:00N 47°30' E 019°03'2 4.4
2018-Feb-17 23:30N 47°28' E 019°04'2 4.1
2018-Feb-17 23:00N 47°26' E 019°03'2 3.6
2018-Feb-17 22:29N 47°24' E 019°02'8 0.4
2018-Feb-17 03:57N 47°18' E 018°55'3 6.6
2018-Feb-17 03:29N 47°20' E 018°57'3 3.4
2018-Feb-17 02:38N 47°23' E 018°59'0 0.0
2018-Feb-17 02:30N 47°23' E 018°59'1 1.5
2018-Feb-17 01:58N 47°23' E 018°60'4 7.6
2018-Feb-17 01:30N 47°26' E 019°03'4 7.8
2018-Feb-17 01:00N 47°30' E 019°03'4 8.2
2018-Feb-17 00:28N 47°34' E 019°04'1 1.0
2018-Feb-16 23:58N 47°35' E 019°04'2 5.1
2018-Feb-16 23:30N 47°32' E 019°03'2 5.1
2018-Feb-16 23:00N 47°30' E 019°03'2 4.5
2018-Feb-16 22:30N 47°28' E 019°04'2 4.8
2018-Feb-16 22:00N 47°26' E 019°03'2 4.7
2018-Feb-16 21:30N 47°23' E 019°01'1 2.3
2018-Feb-16 20:54N 47°23' E 018°59'3 7.4
2018-Feb-16 20:31N 47°25' E 019°03'4 8.1
2018-Feb-16 20:00N 47°29' E 019°04'4 7.6
2018-Feb-16 19:30N 47°33' E 019°03'56 4.3
2018-Feb-16 06:39N 47°45' E 017°43'2 9.2
2018-Feb-16 06:23N 47°47' E 017°40'3 9.0
2018-Feb-16 06:00N 47°49' E 017°36'3 5.3
2018-Feb-16 05:30N 47°51' E 017°34'0 0.0
2018-Feb-15 16:29N 47°51' E 017°34'2 2.9
2018-Feb-15 15:51N 47°53' E 017°32'0 0.1
2018-Feb-15 15:30N 47°53' E 017°32'1 2.2
2018-Feb-15 15:00N 47°54' E 017°31'2 4.9
2018-Feb-15 14:30N 47°55' E 017°29'3 6.7
2018-Feb-15 14:00N 47°58' E 017°25'3 6.4
2018-Feb-15 13:30N 47°60' E 017°21'3 5.9
2018-Feb-15 13:00N 48°00' E 017°17'3 6.5
2018-Feb-15 12:30N 48°03' E 017°13'3 6.9
2018-Feb-15 12:00N 48°05' E 017°09'3 6.9
2018-Feb-15 11:31N 48°08' E 017°08'4 8.8
2018-Feb-15 11:00N 48°09' E 017°01'4 6.9
2018-Feb-15 10:29N 48°09' E 016°56'6 9.5
2018-Feb-15 09:50N 48°07' E 016°47'4 9.0
2018-Feb-15 09:25N 48°07' E 016°41'410.0
2018-Feb-15 08:59N 48°08' E 016°35'5 9.5
2018-Feb-15 08:30N 48°10' E 016°29'0 0.6
2018-Feb-15 07:59N 48°11' E 016°29'2 4.9
2018-Feb-15 07:30N 48°12' E 016°26'16 0.3
2018-Feb-13 05:10N 48°07' E 016°48'0 2.6
2018-Feb-13 05:00N 48°07' E 016°49'1 2.6
2018-Feb-13 04:29N 48°07' E 016°51'1 3.0
2018-Feb-13 04:00N 48°08' E 016°53'1 2.8
2018-Feb-13 03:30N 48°09' E 016°54'1 2.6
2018-Feb-13 03:00N 48°09' E 016°56'1 3.0
2018-Feb-13 02:30N 48°10' E 016°58'1 2.5
2018-Feb-13 02:00N 48°10' E 016°59'1 2.9
2018-Feb-13 01:30N 48°09' E 017°01'1 2.7
2018-Feb-13 01:00N 48°09' E 017°03'2 3.2
2018-Feb-13 00:30N 48°08' E 017°05'2 3.6
2018-Feb-13 00:00N 48°08' E 017°08'2 3.7
2018-Feb-12 23:30N 48°06' E 017°08'2 3.2
2018-Feb-12 23:00N 48°05' E 017°09'0 0.1
2018-Feb-12 22:30N 48°05' E 017°09'2 3.8
2018-Feb-12 22:00N 48°03' E 017°11'2 4.3
2018-Feb-12 21:30N 48°02' E 017°14'2 4.5
2018-Feb-12 21:00N 48°01' E 017°16'2 4.7
2018-Feb-12 20:30N 48°00' E 017°20'2 4.8
2018-Feb-12 20:00N 47°59' E 017°23'  

Dump ship's entire track history